Главная страница
METAR-TAF:

METAR-TAF

Аэропорты :

Уйташ

Махачкала, Россия

широта: 42-49-01N, долгота: 047-39-08E, высота над уровнем моря: 4 м

Текущие метеонаблюдения

Эта сводка был подготовлена 24 минут назад, в 06:00 UTC
Ветер 12 Узел от юго-восточный
Температура 27°C
Влажность 58%
Давление 1008 hPa
Видимость 10 км и более

METAR: URML 230600Z 13006MPS 9999 NSC 27/18 Q1008 R14/01//70 NOSIG RMK QFE756/1008

Время: 09:24 (06:24 UTC)

Прогноз

Эта сводка был подготовлена 1 час и 24 минут назад, в 05:00 UTC
Прогноз действительный с 23-го 06 UTC до 23-го 15 UTC
Ветер 12 Узел от восточно-юго-восточный с порывами до 25 Узел
Видимость 10 км и более
временами
С 23-го 10 UTC до 23-го 15 UTC
Отдельные облака на высоте 4000 фута, Кучево-дождевые.

TAF: URML 230500Z 2306/2315 12006G13MPS 9999 NSC TEMPO 2310/2315 SCT040CB

Метеонаблюдения и прогнозы для более 4000 аэропортов (сводки METAR и TAF).

Имеющиеся станции представлены на карте желтыми и красными точками.

Чтобы увидеть название станции, наведите на нее мышь.

Затем щелкните, чтобы увидеть метеонаблюдения и метеопрогнозы.

Управление картой: чтобы увеличить масштаб, щелкните зеленые кнопки с черным крестиком; чтобы уменьшить масштаб, щелкните зеленую кнопку с тире; для просмотра соседних карт щелкайте зеленые стрелки.


METAR-TAF: